Dilbeek, Belgium
Current Conditions -  °F | °C
As of 3:20 PM on Monday 26 Jan 2015 (Local Time) from EBBR Reporting Station
Drizzle Drizzle  
Wind Chill:   Ceiling: 500
Heat Index:   Visibility: 1.5mi
Dew Point:   Wind: 10mph
Humidity: 93%   Direction: 320°NW
Pressure: 30.09"   Gusts: NA
Location:  50.85°N, 4.26°E
Report Text: EBBR 261420Z 32009KT 290V350 2500 -DZ BR SCT003 BKN005 08/07 Q1019 BECMG 6000 SCT012 BKN050
Loading
Personal Weather Stations






























Interactive Weather Map New forecast layout! Learn more

10-Day Weather Forecast

Advertisements
Track Severe Weather on mobile